This is the latest recevied weather packets stored in our database for station/object OK5TVR-5. If no packets are shown the sender has not sent any weather packets the latest 10 day(s).
| Time | Temp. | Humidity | Pressure | Rain* | Wind** | Luminosity | Snow |
|---|---|---|---|---|---|---|---|
| 1777715526 | 25° C | 32% | 1014.9 hPa | 0 mm | - | 407 W/m² | - |
| 1777714626 | 23.89° C | 33% | 1015 hPa | 0 mm | - | 401 W/m² | - |
| 1777714625 | 23.89° C | 33% | 1015 hPa | 0 mm | - | 401 W/m² | - |
| 1777713724 | 23.33° C | 33% | 1015.1 hPa | 0 mm | - | 384 W/m² | - |
| 1777713723 | 23.33° C | - | - | - | - | - | - |
| 1777713723 | 23.33° C | 33% | 1015.1 hPa | 0 mm | - | 384 W/m² | - |
| 1777712825 | 22.78° C | 38% | 1015.2 hPa | 0 mm | - | 388 W/m² | - |
| 1777712824 | 22.78° C | 38% | 1015.2 hPa | 0 mm | - | 388 W/m² | - |
| 1777711924 | 22.22° C | 36% | 1016.2 hPa | 0 mm | - | 383 W/m² | - |
| 1777711923 | 22.22° C | 36% | 1016.2 hPa | 0 mm | - | 383 W/m² | - |
| 1777711022 | 21.11° C | 43% | 1016.4 hPa | 0 mm | - | 345 W/m² | - |
| 1777711022 | 21.11° C | 43% | 1016.4 hPa | 0 mm | - | 345 W/m² | - |
| 1777710121 | 20.56° C | 44% | 1016.5 hPa | 0 mm | - | 318 W/m² | - |
| 1777710120 | 20.56° C | 44% | 1016.5 hPa | 0 mm | - | 318 W/m² | - |
| 1777710120 | 20.56° C | - | - | - | - | - | - |
| 1777709219 | 20° C | 47% | 1016.6 hPa | 0 mm | - | 277 W/m² | - |
| 1777709219 | 20° C | 47% | 1016.6 hPa | 0 mm | - | 277 W/m² | - |
| 1777709219 | 20° C | 47% | 1016.6 hPa | 0 mm | - | - | - |
| 1777709219 | 20° C | 47% | 1016.6 hPa | 0 mm | - | 277 W/m² | - |
| 1777708319 | 17.22° C | 56% | 1017 hPa | 0 mm | - | 244 W/m² | - |
| 1777708319 | 17.22° C | 56% | 1017 hPa | 0 mm | - | 244 W/m² | - |
| 1777708318 | 17.22° C | 56% | 1017 hPa | 0 mm | - | 244 W/m² | - |
| 1777707418 | 18.33° C | 50% | 1016.7 hPa | 0 mm | - | 203 W/m² | - |
| 1777707418 | 18.33° C | 50% | 1016.7 hPa | 0 mm | - | 203 W/m² | - |
| 1777707418 | 18.33° C | 50% | 1016.7 hPa | 0 mm | - | 203 W/m² | - |
* Rain latest hour (hover to see other rain measurements)
** Current wind speed in m/s (hover to see current wind gust speed)